createdAt,value
2023-05-23T00:02:30.418Z,49.30
2023-05-23T00:05:15.208Z,49.82
2023-05-23T00:08:00.248Z,49.17
2023-05-23T00:10:45.335Z,49.64
2023-05-23T00:13:30.429Z,50.51
2023-05-23T00:16:15.292Z,50.50
2023-05-23T00:19:00.350Z,50.17
2023-05-23T00:21:45.223Z,50.45
2023-05-23T00:24:30.315Z,50.55
2023-05-23T00:27:15.349Z,50.23
2023-05-23T00:30:00.288Z,50.02
2023-05-23T00:32:45.407Z,49.97
2023-05-23T00:35:30.328Z,50.17
2023-05-23T00:38:15.432Z,50.37
2023-05-23T00:41:00.287Z,50.78
2023-05-23T00:43:45.450Z,51.15
2023-05-23T00:46:30.331Z,50.38
2023-05-23T00:49:15.317Z,50.64
2023-05-23T00:52:00.305Z,50.62
2023-05-23T00:54:45.231Z,50.61
2023-05-23T00:57:30.385Z,51.15
2023-05-23T01:00:15.369Z,51.00
2023-05-23T01:03:00.464Z,51.20
2023-05-23T01:05:45.291Z,50.84
2023-05-23T01:08:30.157Z,50.85
2023-05-23T01:11:15.035Z,51.75
2023-05-23T01:14:00.097Z,50.81
2023-05-23T01:16:45.063Z,51.19
2023-05-23T01:19:30.113Z,50.76
2023-05-23T01:22:14.998Z,51.66
2023-05-23T01:24:59.908Z,51.12
2023-05-23T01:27:45.027Z,51.88
2023-05-23T01:30:29.873Z,52.23
2023-05-23T01:33:14.893Z,51.37
2023-05-23T01:35:59.746Z,51.97
2023-05-23T01:38:44.865Z,52.68
2023-05-23T01:41:29.951Z,52.65
2023-05-23T01:44:14.934Z,52.87
2023-05-23T01:47:00.136Z,53.42
2023-05-23T01:49:45.080Z,53.08
2023-05-23T01:52:30.090Z,53.61
2023-05-23T01:55:14.946Z,53.92
2023-05-23T01:58:00.110Z,53.77
2023-05-23T02:00:44.902Z,53.80
2023-05-23T02:03:29.809Z,53.17
2023-05-23T02:06:14.743Z,53.34
2023-05-23T02:08:59.594Z,53.89
2023-05-23T02:11:44.833Z,53.91
2023-05-23T02:14:29.708Z,54.04
2023-05-23T02:17:14.681Z,54.73
2023-05-23T02:19:59.697Z,54.60
2023-05-23T02:22:44.848Z,54.52
2023-05-23T02:25:29.797Z,54.77
2023-05-23T02:28:14.771Z,55.17
2023-05-23T02:30:59.894Z,54.61
2023-05-23T02:33:44.843Z,55.05
2023-05-23T02:36:29.959Z,54.79
2023-05-23T02:39:14.906Z,54.30
2023-05-23T02:42:00.048Z,54.70
2023-05-23T02:44:45.019Z,54.06
2023-05-23T02:47:30.082Z,54.45
2023-05-23T02:50:15.120Z,54.31
2023-05-23T02:53:00.120Z,53.77
2023-05-23T02:55:45.186Z,53.41
2023-05-23T02:58:30.113Z,54.79
2023-05-23T03:01:15.141Z,54.46
2023-05-23T03:04:00.116Z,53.52
2023-05-23T03:06:45.144Z,53.77
2023-05-23T03:09:30.231Z,53.40
2023-05-23T03:12:15.147Z,52.02
2023-05-23T03:15:00.193Z,52.66
2023-05-23T03:17:45.162Z,53.13
2023-05-23T03:20:30.183Z,53.65
2023-05-23T03:23:15.073Z,52.77
2023-05-23T03:26:00.150Z,52.51
2023-05-23T03:28:44.988Z,53.18
2023-05-23T03:31:29.955Z,52.79
2023-05-23T03:34:14.867Z,52.87
2023-05-23T03:36:59.877Z,52.81
2023-05-23T03:39:44.922Z,52.65
2023-05-23T03:42:29.788Z,52.67
2023-05-23T03:45:14.908Z,52.39
2023-05-23T03:47:59.854Z,52.76
2023-05-23T03:50:44.866Z,53.13
2023-05-23T03:53:29.760Z,53.02
2023-05-23T03:56:14.723Z,53.09
2023-05-23T03:58:59.628Z,53.45
2023-05-23T04:01:44.609Z,52.95
2023-05-23T04:04:29.531Z,52.85
2023-05-23T04:07:14.416Z,53.28
2023-05-23T04:09:59.486Z,53.10
2023-05-23T04:12:44.364Z,53.23
2023-05-23T04:15:29.517Z,53.26
2023-05-23T04:18:14.447Z,53.26
2023-05-23T04:20:59.435Z,53.10
2023-05-23T04:23:44.678Z,52.81
2023-05-23T04:26:29.674Z,52.31
2023-05-23T04:29:14.781Z,52.67
2023-05-23T04:31:59.554Z,53.32
2023-05-23T04:34:44.564Z,53.60
2023-05-23T04:37:29.423Z,53.89
2023-05-23T04:40:14.533Z,54.06
2023-05-23T04:42:59.692Z,53.96
2023-05-23T04:45:44.640Z,54.24
2023-05-23T04:48:29.728Z,53.84
2023-05-23T04:51:14.844Z,52.78
2023-05-23T04:54:00.119Z,52.86
2023-05-23T04:56:45.010Z,53.20
2023-05-23T04:59:30.256Z,52.48
2023-05-23T05:02:15.328Z,51.67
2023-05-23T05:05:00.306Z,51.57
2023-05-23T05:07:45.296Z,52.48
2023-05-23T05:10:30.223Z,52.88
2023-05-23T05:13:15.302Z,49.70
2023-05-23T05:16:00.250Z,43.52
2023-05-23T05:18:45.266Z,39.08
2023-05-23T05:21:30.114Z,34.90
2023-05-23T05:24:15.112Z,33.70
2023-05-23T05:27:00.136Z,33.67
2023-05-23T05:29:44.891Z,37.22
2023-05-23T05:32:30.037Z,39.20
2023-05-23T05:35:14.966Z,40.44
2023-05-23T05:37:59.871Z,42.39
2023-05-23T05:40:44.817Z,41.19
2023-05-23T05:43:29.901Z,40.99
2023-05-23T05:46:14.812Z,35.63
2023-05-23T05:48:59.813Z,35.11
2023-05-23T05:51:44.805Z,34.39
2023-05-23T05:54:29.727Z,35.28
2023-05-23T05:57:14.635Z,32.24
2023-05-23T05:59:59.460Z,30.47
2023-05-23T06:02:44.575Z,29.53
2023-05-23T06:05:29.361Z,30.98
2023-05-23T06:08:14.319Z,29.04
2023-05-23T06:10:59.252Z,27.31
2023-05-23T06:13:44.238Z,26.00
2023-05-23T06:16:29.100Z,25.09
2023-05-23T06:19:14.016Z,24.87
2023-05-23T06:21:58.933Z,24.49
2023-05-23T06:24:43.887Z,23.77
2023-05-23T06:27:28.685Z,23.30
2023-05-23T06:30:13.521Z,21.56
2023-05-23T06:32:58.530Z,21.79
2023-05-23T06:35:43.458Z,23.15
2023-05-23T06:38:28.299Z,22.64
2023-05-23T06:41:13.220Z,23.30
2023-05-23T06:43:58.145Z,22.66
2023-05-23T06:46:42.999Z,21.79
2023-05-23T06:49:27.900Z,21.47
2023-05-23T06:52:12.763Z,20.79
2023-05-23T06:54:57.623Z,21.33
2023-05-23T06:57:42.719Z,21.27
2023-05-23T07:00:27.157Z,21.20
2023-05-23T07:03:12.199Z,21.67
2023-05-23T07:05:57.110Z,21.32
2023-05-23T07:08:41.803Z,21.60
2023-05-23T07:11:26.671Z,22.09
2023-05-23T07:14:11.616Z,20.73
2023-05-23T07:16:56.550Z,20.62
2023-05-23T07:19:41.293Z,20.73
2023-05-23T07:22:26.329Z,21.69
2023-05-23T07:25:11.205Z,22.18
2023-05-23T07:27:56.008Z,21.41
2023-05-23T07:30:41.269Z,22.61
2023-05-23T07:33:26.128Z,23.62
2023-05-23T07:36:11.166Z,28.58
2023-05-23T07:38:56.148Z,31.01
2023-05-23T07:41:41.243Z,34.07
2023-05-23T07:44:26.232Z,36.08
2023-05-23T07:47:11.445Z,38.40
2023-05-23T07:49:56.298Z,39.96
2023-05-23T07:52:41.236Z,39.48
2023-05-23T07:55:26.196Z,41.21
2023-05-23T07:58:11.244Z,43.62
2023-05-23T08:00:56.197Z,42.50
2023-05-23T08:03:41.214Z,44.73
2023-05-23T08:06:26.312Z,44.25
2023-05-23T08:09:11.202Z,44.53
2023-05-23T08:11:56.217Z,42.68
2023-05-23T08:14:50.702Z,41.85
2023-05-23T08:17:37.718Z,43.52
2023-05-23T08:20:22.972Z,42.21
2023-05-23T08:23:08.249Z,40.61
2023-05-23T08:25:53.059Z,41.77
2023-05-23T08:28:38.106Z,43.07
2023-05-23T08:31:23.146Z,43.86
2023-05-23T08:34:08.034Z,43.16
2023-05-23T08:36:52.960Z,42.88
2023-05-23T08:39:37.775Z,42.53
2023-05-23T08:42:22.930Z,44.00
2023-05-23T08:45:07.827Z,42.29
2023-05-23T08:47:53.023Z,43.63
2023-05-23T08:50:37.817Z,42.24
2023-05-23T08:53:22.828Z,41.70
2023-05-23T08:56:07.974Z,44.17
2023-05-23T08:58:52.849Z,42.47
2023-05-23T09:01:38.189Z,43.80
2023-05-23T09:04:22.935Z,42.43
2023-05-23T09:07:07.915Z,43.09
2023-05-23T09:09:52.966Z,42.85
2023-05-23T09:12:38.049Z,44.17
2023-05-23T09:15:22.815Z,43.82
2023-05-23T09:18:07.920Z,43.95
2023-05-23T09:20:52.860Z,44.00
2023-05-23T09:23:37.803Z,43.71
2023-05-23T09:26:22.909Z,44.15
2023-05-23T09:29:07.961Z,44.74
2023-05-23T09:31:53.157Z,45.05
2023-05-23T09:34:38.123Z,44.89
2023-05-23T09:37:23.073Z,43.86
2023-05-23T09:40:08.098Z,46.23
2023-05-23T09:42:52.896Z,44.33
2023-05-23T09:45:37.923Z,42.76
2023-05-23T09:48:22.888Z,40.89
2023-05-23T09:51:07.920Z,40.96
2023-05-23T09:53:52.860Z,40.56
2023-05-23T09:56:37.976Z,41.37
2023-05-23T09:59:22.939Z,40.81
2023-05-23T10:02:08.027Z,40.68
2023-05-23T10:04:53.070Z,40.98
2023-05-23T10:07:37.915Z,38.78
2023-05-23T10:10:22.984Z,41.78
2023-05-23T10:13:07.990Z,38.65
2023-05-23T10:15:53.097Z,41.54
2023-05-23T10:18:38.021Z,39.01
2023-05-23T10:21:22.971Z,41.80
2023-05-23T10:24:07.988Z,40.21
2023-05-23T10:26:52.936Z,41.99
2023-05-23T10:29:37.988Z,41.28
2023-05-23T10:32:23.024Z,44.05
2023-05-23T10:35:08.256Z,44.03
2023-05-23T10:37:53.114Z,42.22
2023-05-23T10:40:38.575Z,42.84
2023-05-23T10:43:23.388Z,42.28
2023-05-23T10:46:08.471Z,42.97
2023-05-23T10:48:53.288Z,43.55
2023-05-23T10:51:38.276Z,38.35
2023-05-23T10:54:23.483Z,39.98
2023-05-23T10:57:08.364Z,39.40
2023-05-23T10:59:53.449Z,38.53
2023-05-23T11:02:38.373Z,40.67
2023-05-23T11:05:23.500Z,38.52
2023-05-23T11:08:08.737Z,38.64
2023-05-23T11:10:53.744Z,38.27
2023-05-23T11:13:38.847Z,36.95
2023-05-23T11:16:23.846Z,36.36
2023-05-23T11:19:09.030Z,37.02
2023-05-23T11:21:53.857Z,37.95
2023-05-23T11:24:38.858Z,36.40
2023-05-23T11:27:23.775Z,38.04
2023-05-23T11:30:08.905Z,38.66
2023-05-23T11:32:54.003Z,39.55
2023-05-23T11:35:38.847Z,36.24
2023-05-23T11:38:23.912Z,37.75
2023-05-23T11:41:08.875Z,37.03
2023-05-23T11:43:53.742Z,35.89
2023-05-23T11:46:39.038Z,36.09
2023-05-23T11:49:24.046Z,37.15
2023-05-23T11:52:09.001Z,35.03
2023-05-23T11:54:56.183Z,37.30
2023-05-23T11:57:41.863Z,36.90
2023-05-23T12:00:26.764Z,37.80
2023-05-23T12:03:12.070Z,36.77
2023-05-23T12:05:56.861Z,37.42
2023-05-23T12:08:41.892Z,37.15
2023-05-23T12:11:26.839Z,35.77
2023-05-23T12:14:11.773Z,36.20
2023-05-23T12:16:56.737Z,37.29
2023-05-23T12:19:41.714Z,37.59
2023-05-23T12:22:26.754Z,37.44
2023-05-23T12:25:11.708Z,36.91
2023-05-23T12:27:56.655Z,36.64
2023-05-23T12:30:41.660Z,36.20
2023-05-23T12:33:26.557Z,37.24
2023-05-23T12:36:11.661Z,35.29
2023-05-23T12:38:56.604Z,34.94
2023-05-23T12:41:41.525Z,35.17
2023-05-23T12:44:26.589Z,34.70
2023-05-23T12:47:11.559Z,34.07
2023-05-23T12:49:56.381Z,34.24
2023-05-23T12:52:41.483Z,34.58
2023-05-23T12:55:26.484Z,32.84
2023-05-23T12:58:11.527Z,34.55
2023-05-23T13:00:56.630Z,34.73
2023-05-23T13:03:41.530Z,32.55
2023-05-23T13:06:26.511Z,35.10
2023-05-23T13:09:11.372Z,33.22
2023-05-23T13:11:56.435Z,34.99
2023-05-23T13:14:41.466Z,33.44
2023-05-23T13:17:26.579Z,33.02
2023-05-23T13:20:11.542Z,33.83
2023-05-23T13:22:56.469Z,34.68
2023-05-23T13:25:42.134Z,34.34
2023-05-23T13:28:27.197Z,34.61
2023-05-23T13:31:12.242Z,34.26
2023-05-23T13:33:57.136Z,34.18
2023-05-23T13:36:43.293Z,32.40
2023-05-23T13:39:28.458Z,34.35
2023-05-23T13:42:13.391Z,33.14
2023-05-23T13:44:58.440Z,34.21
2023-05-23T13:47:43.356Z,34.16
2023-05-23T13:50:28.346Z,35.09
2023-05-23T13:53:13.356Z,31.92
2023-05-23T13:55:58.209Z,33.44
2023-05-23T13:58:43.150Z,33.12
2023-05-23T14:01:28.201Z,33.07
2023-05-23T14:04:13.226Z,31.41
2023-05-23T14:06:58.237Z,30.59
2023-05-23T14:09:43.422Z,29.52
2023-05-23T14:12:28.190Z,31.60
2023-05-23T14:15:13.076Z,31.47
2023-05-23T14:17:58.098Z,32.93
2023-05-23T14:20:43.088Z,30.95
2023-05-23T14:23:28.100Z,28.88
2023-05-23T14:26:13.009Z,30.58
2023-05-23T14:28:58.161Z,28.82
2023-05-23T14:31:43.148Z,27.71
2023-05-23T14:34:28.071Z,28.15
2023-05-23T14:37:12.829Z,27.64
2023-05-23T14:39:57.923Z,29.27
2023-05-23T14:42:42.769Z,30.11
2023-05-23T14:45:27.957Z,30.75
2023-05-23T14:48:13.186Z,31.54
2023-05-23T14:50:57.909Z,32.50
2023-05-23T14:53:42.985Z,29.59
2023-05-23T14:56:27.817Z,30.34
2023-05-23T14:59:12.843Z,30.70
2023-05-23T15:01:57.764Z,31.99
2023-05-23T15:04:42.677Z,31.19
2023-05-23T15:07:27.531Z,31.84
2023-05-23T15:10:12.653Z,31.68
2023-05-23T15:12:57.724Z,33.15
2023-05-23T15:15:42.962Z,34.27
2023-05-23T15:18:39.581Z,34.35
2023-05-23T15:21:26.716Z,34.68
2023-05-23T15:24:11.759Z,34.44
2023-05-23T15:27:02.288Z,34.32
2023-05-23T15:29:53.217Z,31.59
2023-05-23T15:32:38.210Z,31.78
2023-05-23T15:35:23.283Z,31.69
2023-05-23T15:38:08.246Z,31.20
2023-05-23T15:40:53.413Z,31.15
2023-05-23T15:43:38.293Z,30.11
2023-05-23T15:46:23.357Z,30.84
2023-05-23T15:49:21.633Z,30.27
2023-05-23T15:52:09.736Z,31.97
2023-05-23T15:54:54.836Z,31.35
2023-05-23T15:57:39.729Z,31.86
2023-05-23T16:00:24.818Z,31.51
2023-05-23T16:03:09.907Z,31.24
2023-05-23T16:05:54.893Z,30.84
2023-05-23T16:08:39.892Z,30.78
2023-05-23T16:11:24.971Z,31.61
2023-05-23T16:14:10.002Z,31.99
2023-05-23T16:16:54.878Z,32.94
2023-05-23T16:19:40.160Z,33.40
2023-05-23T16:22:24.955Z,33.70
2023-05-23T16:25:10.036Z,34.24
2023-05-23T16:27:54.987Z,34.26
2023-05-23T16:30:40.128Z,34.47
2023-05-23T16:33:25.106Z,33.80
2023-05-23T16:36:10.098Z,33.99
2023-05-23T16:38:55.723Z,33.64
2023-05-23T16:41:40.730Z,33.90
2023-05-23T16:44:25.683Z,35.18
2023-05-23T16:47:10.599Z,38.28
2023-05-23T16:49:55.620Z,39.43
2023-05-23T16:52:40.648Z,40.74
2023-05-23T16:55:25.644Z,41.20
2023-05-23T16:58:10.734Z,41.50
2023-05-23T17:00:55.813Z,42.69
2023-05-23T17:03:41.062Z,42.76
2023-05-23T17:06:25.891Z,41.95
2023-05-23T17:09:10.879Z,42.72
2023-05-23T17:11:55.903Z,42.40
2023-05-23T17:14:41.033Z,41.63
2023-05-23T17:17:26.232Z,43.86
2023-05-23T17:20:11.122Z,42.70
2023-05-23T17:22:56.132Z,42.96
2023-05-23T17:25:41.328Z,43.20
2023-05-23T17:28:26.497Z,43.83
2023-05-23T17:31:11.419Z,41.88
2023-05-23T17:33:56.514Z,42.72
2023-05-23T17:36:41.564Z,39.91
2023-05-23T17:39:26.411Z,41.25
2023-05-23T17:42:11.553Z,41.44
2023-05-23T17:44:56.448Z,40.89
2023-05-23T17:47:41.532Z,39.60
2023-05-23T17:50:26.504Z,40.11
2023-05-23T17:53:11.664Z,39.19
2023-05-23T17:55:56.486Z,38.58
2023-05-23T17:58:43.907Z,40.71
2023-05-23T18:01:29.101Z,42.40
2023-05-23T18:04:13.978Z,43.18
2023-05-23T18:06:58.991Z,41.58
2023-05-23T18:09:43.929Z,41.31
2023-05-23T18:12:29.127Z,41.81
2023-05-23T18:15:14.107Z,41.84
2023-05-23T18:17:59.219Z,43.04
2023-05-23T18:20:44.645Z,43.40
2023-05-23T18:23:29.672Z,42.91
2023-05-23T18:26:14.814Z,42.60
2023-05-23T18:28:59.761Z,43.65
2023-05-23T18:31:44.775Z,44.25
2023-05-23T18:34:29.866Z,44.83
2023-05-23T18:37:14.731Z,44.30
2023-05-23T18:39:59.791Z,43.73
2023-05-23T18:42:44.759Z,43.29
2023-05-23T18:45:29.797Z,43.58
2023-05-23T18:48:14.734Z,43.94
2023-05-23T18:50:59.891Z,43.95
2023-05-23T18:53:44.844Z,43.96
2023-05-23T18:56:29.790Z,44.13
2023-05-23T18:59:14.656Z,44.51
2023-05-23T19:01:59.678Z,44.11
2023-05-23T19:04:44.794Z,44.38
2023-05-23T19:07:29.654Z,44.50
2023-05-23T19:10:14.559Z,44.53
2023-05-23T19:12:59.411Z,44.86
2023-05-23T19:15:44.472Z,45.73
2023-05-23T19:18:29.412Z,46.87
2023-05-23T19:21:14.407Z,46.91
2023-05-23T19:23:59.450Z,46.77
2023-05-23T19:26:44.435Z,51.48
2023-05-23T19:29:29.627Z,46.30
2023-05-23T19:32:14.586Z,46.45
2023-05-23T19:34:59.657Z,47.46
2023-05-23T19:37:44.473Z,48.24
2023-05-23T19:40:29.555Z,47.81
2023-05-23T19:43:14.452Z,48.09
2023-05-23T19:45:59.547Z,48.11
2023-05-23T19:48:44.484Z,48.30
2023-05-23T19:51:29.406Z,48.59
2023-05-23T19:54:14.502Z,47.99
2023-05-23T19:56:59.323Z,48.15
2023-05-23T19:59:44.278Z,48.33
2023-05-23T20:02:29.334Z,47.59
2023-05-23T20:05:14.401Z,47.22
2023-05-23T20:07:59.359Z,46.81
2023-05-23T20:10:44.456Z,50.67
2023-05-23T20:13:29.512Z,46.89
2023-05-23T20:16:14.559Z,46.61
2023-05-23T20:18:59.813Z,46.67
2023-05-23T20:21:44.625Z,46.82
2023-05-23T20:24:29.639Z,46.73
2023-05-23T20:27:14.537Z,46.66
2023-05-23T20:29:59.699Z,46.20
2023-05-23T20:32:44.944Z,46.75
2023-05-23T20:35:29.888Z,46.93
2023-05-23T20:38:15.036Z,46.11
2023-05-23T20:41:00.195Z,46.18
2023-05-23T20:43:45.222Z,45.91
2023-05-23T20:46:32.785Z,45.65
2023-05-23T20:49:17.753Z,46.00
2023-05-23T20:52:02.839Z,44.55
2023-05-23T20:54:47.681Z,45.61
2023-05-23T20:57:32.881Z,46.55
2023-05-23T21:00:17.920Z,46.80
2023-05-23T21:03:03.055Z,47.69
2023-05-23T21:05:47.931Z,47.49
2023-05-23T21:08:34.701Z,48.74
2023-05-23T21:11:20.079Z,48.62
2023-05-23T21:14:05.032Z,47.28
2023-05-23T21:16:50.273Z,47.07
2023-05-23T21:19:35.075Z,46.90
2023-05-23T21:22:20.111Z,46.47
2023-05-23T21:25:05.128Z,47.43
2023-05-23T21:27:50.163Z,47.48
2023-05-23T21:30:35.161Z,46.54
2023-05-23T21:33:20.136Z,47.19
2023-05-23T21:36:05.132Z,47.89
2023-05-23T21:38:50.071Z,47.85
2023-05-23T21:41:35.113Z,48.61
2023-05-23T21:44:20.189Z,49.58
2023-05-23T21:47:05.254Z,49.86
2023-05-23T21:49:50.335Z,49.19
2023-05-23T21:52:35.183Z,48.55
2023-05-23T21:55:20.355Z,48.71
2023-05-23T21:58:05.317Z,48.73
2023-05-23T22:00:50.541Z,48.65
2023-05-23T22:03:35.610Z,49.04
2023-05-23T22:06:20.651Z,48.86
2023-05-23T22:09:05.672Z,48.91
2023-05-23T22:11:50.737Z,48.96
2023-05-23T22:14:35.770Z,48.85
2023-05-23T22:17:20.755Z,48.70
2023-05-23T22:20:05.754Z,48.57
2023-05-23T22:22:50.616Z,48.72
2023-05-23T22:25:35.799Z,49.13
2023-05-23T22:28:20.706Z,48.91
2023-05-23T22:31:05.886Z,48.52
2023-05-23T22:33:50.817Z,50.10
2023-05-23T22:36:35.751Z,49.76
2023-05-23T22:39:20.937Z,50.23
2023-05-23T22:42:05.924Z,49.95
2023-05-23T22:44:51.072Z,50.31
2023-05-23T22:47:35.995Z,50.99
2023-05-23T22:50:20.955Z,50.51
2023-05-23T22:53:05.798Z,50.92
2023-05-23T22:55:50.999Z,50.96
2023-05-23T22:58:35.918Z,51.43
2023-05-23T23:01:21.088Z,50.89
2023-05-23T23:04:05.982Z,50.58
2023-05-23T23:06:50.975Z,50.10
2023-05-23T23:09:36.140Z,51.46
2023-05-23T23:12:21.082Z,51.75
2023-05-23T23:15:06.099Z,51.22
2023-05-23T23:17:51.106Z,51.41
2023-05-23T23:20:35.942Z,51.17
2023-05-23T23:23:21.036Z,51.35
2023-05-23T23:26:05.907Z,51.20
2023-05-23T23:28:51.039Z,51.60
2023-05-23T23:31:35.997Z,51.68
2023-05-23T23:34:21.224Z,52.23
2023-05-23T23:37:06.130Z,50.73
2023-05-23T23:39:51.377Z,51.28
2023-05-23T23:42:36.427Z,50.08
2023-05-23T23:45:21.432Z,50.28
2023-05-23T23:48:06.580Z,50.97
2023-05-23T23:50:51.463Z,51.28
2023-05-23T23:53:36.661Z,51.78
2023-05-23T23:56:21.578Z,51.40
2023-05-23T23:59:06.589Z,51.68
